GMMX/RAK METAR and TAF weather

Enter ICAO airport designator
Station Type Date Time Source
GMMX METAR 2020/07/08 23:00 UTC NOAA

GMMX 082300Z 04005KT CAVOK 29/14 Q1017 NOSIG


Station Type Date Time Source
GMMX Decoded METAR 2020/07/08 23:00 UTC NOAA

Marrakech, Morocco (GMMX) 31-37N 008-02W 466M
Jul 08, 2020 - 07:00 PM EDT / 2020.07.08 2300 UTC
Wind: from the NE (040 degrees) at 6 MPH (5 KT):0
Visibility: greater than 7 mile(s):0
Temperature: 84 F (29 C)
Dew Point: 57 F (14 C)
Relative Humidity: 39%
Pressure (altimeter): 30.03 in. Hg (1017 hPa)
ob: GMMX 082300Z 04005KT CAVOK 29/14 Q1017 NOSIG
cycle: 23

Station Type Date Time Source
GMMX TAF 2020/07/08 18:39 UTC NOAA

TAF TAF GMMX 081700Z 0818/0924 36016KT 8000 FEW040 SCT120
BECMG 0821/0823 02006KT NSC
TEMPO 0916/0921 36014KT

Example: see airport list